Time;durP1;ratioP1;P1;durP2;ratioP2;P2;SDS_P1;SDS_P2;PMS_P1;PMS_P2;Temp;Humidity;BMP_temperature;BMP_pressure;BME280_temperature;BME280_humidity;BME280_pressure;Samples;Min_cycle;Max_cycle;Signal;HPM_P1;HPM_P2
2021/11/19 00:00:08;;;;;;;1999.90;999.90;;;;;;;4.18;62.54;101941.28;4918450;28;100585;-73
2021/11/19 00:02:40;;;;;;;1999.90;999.90;;;;;;;4.19;62.41;101948.38;4910092;28;99578;-74
2021/11/19 00:05:10;;;;;;;1999.90;999.90;;;;;;;4.21;62.31;101963.47;4926808;28;96871;-74
2021/11/19 00:07:37;;;;;;;1999.90;999.90;;;;;;;4.17;62.96;101943.00;4923760;28;97153;-74
2021/11/19 00:10:07;;;;;;;1999.90;999.90;;;;;;;4.21;62.47;101944.09;4916826;28;100669;-71
2021/11/19 00:12:35;;;;;;;1999.90;999.90;;;;;;;4.21;62.35;101944.09;4930803;28;99227;-71
2021/11/19 00:15:04;;;;;;;1999.90;999.90;;;;;;;4.17;62.78;101942.13;4915021;28;97946;-71
2021/11/19 00:17:32;;;;;;;1999.90;999.90;;;;;;;4.18;63.23;101936.94;4923086;28;97083;-72
2021/11/19 00:20:00;;;;;;;1999.90;999.90;;;;;;;4.21;62.88;101949.38;4913980;28;100809;-72
2021/11/19 00:22:29;;;;;;;1999.90;999.90;;;;;;;4.22;62.91;101957.38;4915831;28;100320;-73
2021/11/19 00:24:56;;;;;;;1999.90;999.90;;;;;;;4.26;62.57;101965.50;4924401;28;97678;-70
2021/11/19 00:27:25;;;;;;;1999.90;999.90;;;;;;;4.28;62.71;101977.94;4929171;28;98836;-71
2021/11/19 00:29:53;;;;;;;1999.90;999.90;;;;;;;4.26;63.25;101976.97;4929243;28;98753;-74
2021/11/19 00:32:21;;;;;;;1999.90;999.90;;;;;;;4.31;62.63;101974.59;4931059;28;97698;-73
2021/11/19 00:34:50;;;;;;;1999.90;999.90;;;;;;;4.31;62.83;101974.59;4909859;28;98121;-72
2021/11/19 00:37:21;;;;;;;1999.90;999.90;;;;;;;4.29;63.18;101969.25;4915662;28;97305;-73
2021/11/19 00:39:51;;;;;;;1999.90;999.90;;;;;;;4.33;62.99;101973.91;4913623;28;97652;-69
2021/11/19 00:42:19;;;;;;;1999.90;999.90;;;;;;;4.38;62.92;101966.28;4922695;28;98734;-70
2021/11/19 00:44:47;;;;;;;1999.90;999.90;;;;;;;4.40;62.47;101967.28;4917660;28;97720;-75
2021/11/19 00:47:16;;;;;;;1999.90;999.90;;;;;;;4.43;62.60;101980.66;4908489;28;97981;-71
2021/11/19 00:49:45;;;;;;;1999.90;999.90;;;;;;;4.42;62.54;101966.59;4896673;28;100691;-72
2021/11/19 00:52:15;;;;;;;1999.90;999.90;;;;;;;4.44;62.78;101975.53;4929526;28;97947;-72
2021/11/19 00:54:44;;;;;;;1999.90;999.90;;;;;;;4.47;62.59;101965.16;4893258;28;97562;-71
2021/11/19 00:57:16;;;;;;;1999.90;999.90;;;;;;;4.50;62.29;101961.81;4914962;28;97990;-73
2021/11/19 00:59:44;;;;;;;1999.90;999.90;;;;;;;4.52;62.57;101963.72;4913397;28;97782;-71
2021/11/19 01:02:17;;;;;;;1999.90;999.90;;;;;;;4.54;62.66;101971.72;4920267;28;99034;-70
2021/11/19 01:04:45;;;;;;;1999.90;999.90;;;;;;;4.54;62.70;101967.38;4907526;28;97026;-74
2021/11/19 01:07:15;;;;;;;1999.90;999.90;;;;;;;4.56;62.68;101967.47;4897753;28;96875;-75
2021/11/19 01:09:45;;;;;;;1999.90;999.90;;;;;;;4.54;63.67;101969.09;4894576;28;98623;-75
2021/11/19 01:12:18;;;;;;;1999.90;999.90;;;;;;;4.56;63.40;101970.09;4915013;28;98695;-74
2021/11/19 01:14:49;;;;;;;1999.90;999.90;;;;;;;4.56;63.42;101972.72;4907071;28;96887;-74
2021/11/19 01:17:20;;;;;;;1999.90;999.90;;;;;;;4.59;62.72;101980.88;4926062;28;96830;-74
2021/11/19 01:19:51;;;;;;;1999.90;999.90;;;;;;;4.59;62.83;101972.97;4912369;28;98991;-74
2021/11/19 01:22:23;;;;;;;1999.90;999.90;;;;;;;4.58;63.09;101979.03;4916004;28;97850;-73
2021/11/19 01:24:51;;;;;;;1999.90;999.90;;;;;;;4.60;62.75;101975.69;4918867;28;97230;-72
2021/11/19 01:27:21;;;;;;;1999.90;999.90;;;;;;;4.62;62.98;101981.03;4911356;28;97709;-74
2021/11/19 01:29:49;;;;;;;1999.90;999.90;;;;;;;4.62;62.83;101970.50;4926869;28;97639;-74
2021/11/19 01:32:23;;;;;;;1999.90;999.90;;;;;;;4.63;62.82;101974.94;4900514;28;98687;-74
2021/11/19 01:35:10;;;;;;;1999.90;999.90;;;;;;;4.63;62.87;101978.50;4925922;28;97282;-73
2021/11/19 01:38:01;;;;;;;1999.90;999.90;;;;;;;4.63;62.96;101980.22;4922602;28;97268;-74
2021/11/19 01:40:41;;;;;;;1999.90;999.90;;;;;;;4.64;62.48;101974.16;4895929;28;100461;-73
2021/11/19 01:43:25;;;;;;;1999.90;999.90;;;;;;;4.65;62.92;101971.59;4923615;28;99515;-73
2021/11/19 01:45:55;;;;;;;1999.90;999.90;;;;;;;4.63;63.08;101970.59;4908595;28;97092;-76
2021/11/19 01:48:25;;;;;;;1999.90;999.90;;;;;;;4.65;62.69;101962.78;4921093;28;96832;-74
2021/11/19 01:50:55;;;;;;;1999.90;999.90;;;;;;;4.64;62.95;101968.88;4930036;28;98900;-72
2021/11/19 01:53:28;;;;;;;1999.90;999.90;;;;;;;4.64;62.97;101968.88;4932150;28;99050;-74
2021/11/19 01:55:59;;;;;;;1999.90;999.90;;;;;;;4.63;63.44;101951.22;4916828;28;97385;-75
2021/11/19 01:58:30;;;;;;;1999.90;999.90;;;;;;;4.64;63.11;101963.59;4897380;28;97901;-73
2021/11/19 02:01:04;;;;;;;1999.90;999.90;;;;;;;4.66;62.71;101956.72;4919455;28;101126;-75
2021/11/19 02:03:35;;;;;;;1999.90;999.90;;;;;;;4.65;63.15;101950.53;4915043;28;99606;-73
2021/11/19 02:06:06;;;;;;;1999.90;999.90;;;;;;;4.68;62.64;101960.34;4928724;28;97117;-73
2021/11/19 02:08:37;;;;;;;1999.90;999.90;;;;;;;4.69;63.26;101951.63;4923715;28;97683;-75
2021/11/19 02:11:17;;;;;;;1999.90;999.90;;;;;;;4.68;64.18;101952.44;4912208;28;98101;-73
2021/11/19 02:13:54;;;;;;;1999.90;999.90;;;;;;;4.69;63.23;101952.53;4924594;28;98636;-73
2021/11/19 02:16:25;;;;;;;1999.90;999.90;;;;;;;4.71;63.39;101955.25;4895195;28;98224;-72
2021/11/19 02:18:59;;;;;;;1999.90;999.90;;;;;;;4.71;63.13;101952.63;4893613;28;97858;-73
2021/11/19 02:21:31;;;;;;;1999.90;999.90;;;;;;;4.72;63.10;101955.34;4932606;28;99136;-72
2021/11/19 02:24:03;;;;;;;1999.90;999.90;;;;;;;4.73;63.37;101961.56;4923110;28;98749;-73
2021/11/19 02:26:35;;;;;;;1999.90;999.90;;;;;;;4.74;63.28;101960.72;4911390;28;97351;-73
2021/11/19 02:29:05;;;;;;;1999.90;999.90;;;;;;;4.75;63.35;101952.00;4908674;28;97510;-75
2021/11/19 02:31:47;;;;;;;1999.90;999.90;;;;;;;4.77;63.96;101945.13;4914743;28;99126;-73
2021/11/19 02:34:15;;;;;;;1999.90;999.90;;;;;;;4.79;63.26;101961.94;4911258;28;99297;-73
2021/11/19 02:36:48;;;;;;;1999.90;999.90;;;;;;;4.79;63.53;101956.69;4891898;28;96844;-74
2021/11/19 02:39:19;;;;;;;1999.90;999.90;;;;;;;4.78;63.29;101963.66;4895361;28;97032;-74
2021/11/19 02:41:49;;;;;;;1999.90;999.90;;;;;;;4.79;63.13;101948.75;4913680;28;98241;-73
2021/11/19 02:44:21;;;;;;;1999.90;999.90;;;;;;;4.79;63.86;101961.94;4909220;28;98051;-74
2021/11/19 02:46:53;;;;;;;1999.90;999.90;;;;;;;4.82;63.45;101964.78;4898217;28;97310;-73
2021/11/19 02:49:23;;;;;;;1999.90;999.90;;;;;;;4.80;64.05;101955.84;4897024;28;97594;-73
2021/11/19 02:51:51;;;;;;;1999.90;999.90;;;;;;;4.83;63.62;101961.31;4889245;28;98405;-74
2021/11/19 02:54:25;;;;;;;1999.90;999.90;;;;;;;4.84;63.65;101960.50;4912603;28;99471;-73
2021/11/19 02:56:54;;;;;;;1999.90;999.90;;;;;;;4.86;63.54;101945.69;4912620;28;97900;-72
2021/11/19 02:59:24;;;;;;;1999.90;999.90;;;;;;;4.87;63.35;101966.88;4911514;28;97626;-74
2021/11/19 03:01:55;;;;;;;1999.90;999.90;;;;;;;4.85;64.13;101959.66;4930423;28;97431;-74
2021/11/19 03:04:27;;;;;;;1999.90;999.90;;;;;;;4.88;63.97;101946.69;4891415;28;100343;-75
2021/11/19 03:06:57;;;;;;;1999.90;999.90;;;;;;;4.90;63.78;101958.25;4923699;28;97108;-75
2021/11/19 03:09:30;;;;;;;1999.90;999.90;;;;;;;4.90;63.71;101963.53;4911494;28;97079;-74
2021/11/19 03:11:58;;;;;;;1999.90;999.90;;;;;;;4.90;63.99;101953.00;4886581;28;98159;-71
2021/11/19 03:14:28;;;;;;;1999.90;999.90;;;;;;;4.93;63.30;101958.44;4913402;28;98372;-71
2021/11/19 03:16:56;;;;;;;1999.90;999.90;;;;;;;4.93;63.58;101946.19;4915705;28;97080;-72
2021/11/19 03:19:26;;;;;;;1999.90;999.90;;;;;;;4.93;63.55;101950.53;4894877;28;96892;-71
2021/11/19 03:21:55;;;;;;;1999.90;999.90;;;;;;;4.93;63.43;101953.16;4892359;28;99156;-71
2021/11/19 03:24:25;;;;;;;1999.90;999.90;;;;;;;4.93;63.84;101966.34;4924891;28;98755;-73
2021/11/19 03:26:53;;;;;;;1999.90;999.90;;;;;;;4.90;64.27;101953.88;4894377;28;97853;-72
2021/11/19 03:29:24;;;;;;;1999.90;999.90;;;;;;;4.89;63.80;101946.78;4913142;28;97410;-72
2021/11/19 03:31:55;;;;;;;1999.90;999.90;;;;;;;4.92;63.52;101943.41;4886903;28;101342;-75
2021/11/19 03:34:23;;;;;;;1999.90;999.90;;;;;;;4.91;63.89;101945.16;4925180;28;98714;-72
2021/11/19 03:36:55;;;;;;;1999.90;999.90;;;;;;;4.90;63.81;101943.31;4904947;28;96717;-72
2021/11/19 03:39:27;;;;;;;1999.90;999.90;;;;;;;4.92;63.81;101952.25;4914324;28;96728;-72
2021/11/19 03:41:56;;;;;;;1999.90;999.90;;;;;;;4.93;64.09;101947.88;4910417;28;98207;-75
2021/11/19 03:44:28;;;;;;;1999.90;999.90;;;;;;;4.92;64.06;101940.78;4897196;28;98865;-74
2021/11/19 03:47:00;;;;;;;1999.90;999.90;;;;;;;4.94;63.72;101939.16;4907094;28;97711;-74
2021/11/19 03:49:31;;;;;;;1999.90;999.90;;;;;;;4.96;63.51;101942.78;4921625;28;97281;-74
2021/11/19 03:52:02;;;;;;;1999.90;999.90;;;;;;;4.96;63.73;101950.72;4909780;28;98870;-73
2021/11/19 03:54:31;;;;;;;1999.90;999.90;;;;;;;4.96;64.19;101946.34;4901900;28;99690;-74
2021/11/19 03:57:00;;;;;;;1999.90;999.90;;;;;;;5.01;63.85;101949.28;4889291;28;96884;-72
2021/11/19 03:59:28;;;;;;;1999.90;999.90;;;;;;;5.01;63.79;101954.56;4913854;28;97565;-73
2021/11/19 04:01:59;;;;;;;1999.90;999.90;;;;;;;5.00;64.57;101979.09;4927517;28;97864;-74
2021/11/19 04:04:30;;;;;;;1999.90;999.90;;;;;;;5.04;63.65;101962.69;4908764;28;99756;-73
2021/11/19 04:07:00;;;;;;;1999.90;999.90;;;;;;;5.08;63.74;101967.34;4911357;28;97970;-73
2021/11/19 04:09:28;;;;;;;1999.90;999.90;;;;;;;5.10;63.68;101973.63;4916176;28;97265;-74
2021/11/19 04:11:57;;;;;;;1999.90;999.90;;;;;;;5.12;63.49;101966.69;4921950;28;99186;-72
2021/11/19 04:14:27;;;;;;;1999.90;999.90;;;;;;;5.08;64.25;101981.44;4905287;28;99426;-73
2021/11/19 04:16:56;;;;;;;1999.90;999.90;;;;;;;5.11;63.73;101976.38;4928940;28;96851;-73
2021/11/19 04:19:29;;;;;;;1999.90;999.90;;;;;;;5.14;63.70;101980.91;4914460;28;98968;-73
2021/11/19 04:22:00;;;;;;;1999.90;999.90;;;;;;;5.14;63.68;101984.47;4929536;28;97038;-74
2021/11/19 04:24:31;;;;;;;1999.90;999.90;;;;;;;5.18;63.38;101985.56;4914624;28;97885;-74
2021/11/19 04:27:01;;;;;;;1999.90;999.90;;;;;;;5.20;63.47;101987.47;4900886;28;97677;-74
2021/11/19 04:29:42;;;;;;;1999.90;999.90;;;;;;;5.20;64.16;101990.13;4899997;28;97496;-73
2021/11/19 04:32:24;;;;;;;1999.90;999.90;;;;;;;5.23;63.96;101997.28;4896248;28;97752;-74
2021/11/19 04:34:56;;;;;;;1999.90;999.90;;;;;;;5.24;63.71;101985.94;4902621;28;97884;-73
2021/11/19 04:37:24;;;;;;;1999.90;999.90;;;;;;;5.26;63.71;101992.22;4914243;28;97235;-74
2021/11/19 04:39:52;;;;;;;1999.90;999.90;;;;;;;5.24;64.37;101993.88;4895833;28;97421;-73
2021/11/19 04:42:21;;;;;;;1999.90;999.90;;;;;;;5.25;64.18;101995.66;4916566;28;99116;-70
2021/11/19 04:44:49;;;;;;;1999.90;999.90;;;;;;;5.24;64.17;101988.59;4901964;28;100177;-71
2021/11/19 04:47:18;;;;;;;1999.90;999.90;;;;;;;5.25;64.17;101995.66;4911125;28;97855;-71
2021/11/19 04:49:46;;;;;;;1999.90;999.90;;;;;;;5.24;64.23;101993.88;4912845;28;98082;-74
2021/11/19 04:52:16;;;;;;;1999.90;999.90;;;;;;;5.25;64.50;101995.66;4914042;28;97715;-71
2021/11/19 04:54:44;;;;;;;1999.90;999.90;;;;;;;5.24;64.49;101999.13;4901396;28;99420;-73
2021/11/19 04:57:12;;;;;;;1999.90;999.90;;;;;;;5.27;63.80;101988.75;4900112;28;97452;-75
2021/11/19 04:59:41;;;;;;;1999.90;999.90;;;;;;;5.27;64.07;101988.75;4915440;28;97401;-73
2021/11/19 05:02:12;;;;;;;1999.90;999.90;;;;;;;5.28;64.01;101985.31;4888274;28;100293;-73
2021/11/19 05:04:54;;;;;;;1999.90;999.90;;;;;;;5.25;64.46;101990.38;4920754;28;98200;-72
2021/11/19 05:07:23;;;;;;;1999.90;999.90;;;;;;;5.28;64.31;101977.41;4910429;28;98455;-72
2021/11/19 05:09:53;;;;;;;1999.90;999.90;;;;;;;5.30;63.85;101983.69;4893729;28;97561;-70
2021/11/19 05:12:25;;;;;;;1999.90;999.90;;;;;;;5.32;63.96;101978.50;4902215;28;99695;-72
2021/11/19 05:14:55;;;;;;;1999.90;999.90;;;;;;;5.28;64.35;101969.50;4921230;28;97165;-72
2021/11/19 05:17:23;;;;;;;1999.90;999.90;;;;;;;5.28;64.26;101977.41;4910275;28;97570;-70
2021/11/19 05:19:55;;;;;;;1999.90;999.90;;;;;;;5.26;64.61;101970.19;4922865;28;97875;-71
2021/11/19 05:22:24;;;;;;;1999.90;999.90;;;;;;;5.26;64.20;101976.41;4911054;28;98946;-69
2021/11/19 05:24:52;;;;;;;1999.90;999.90;;;;;;;5.26;64.09;101986.94;4896621;28;97752;-70
2021/11/19 05:27:21;;;;;;;1999.90;999.90;;;;;;;5.29;63.87;101988.84;4909157;28;97061;-71
2021/11/19 05:29:49;;;;;;;1999.90;999.90;;;;;;;5.26;64.57;101994.88;4910650;28;97436;-71
2021/11/19 05:32:23;;;;;;;1999.90;999.90;;;;;;;5.26;64.80;101986.94;4905243;28;100749;-72
2021/11/19 05:34:51;;;;;;;1999.90;999.90;;;;;;;5.29;64.06;101981.84;4896564;28;99601;-71
2021/11/19 05:37:19;;;;;;;1999.90;999.90;;;;;;;5.29;64.43;101991.50;4905202;28;97684;-71
2021/11/19 05:39:48;;;;;;;1999.90;999.90;;;;;;;5.29;64.30;101975.66;4895536;28;97354;-73
2021/11/19 05:42:17;;;;;;;1999.90;999.90;;;;;;;5.26;64.70;101980.75;4908147;28;97987;-74
2021/11/19 05:44:45;;;;;;;1999.90;999.90;;;;;;;5.25;65.08;101990.38;4922786;28;97799;-73
2021/11/19 05:47:34;;;;;;;1999.90;999.90;;;;;;;5.24;64.73;101975.38;4924055;28;97808;-73
2021/11/19 05:50:24;;;;;;;1999.90;999.90;;;;;;;5.23;64.97;101980.56;4909738;28;97904;-75
2021/11/19 05:52:57;;;;;;;1999.90;999.90;;;;;;;5.23;64.96;101974.47;4887728;28;100903;-76
2021/11/19 05:55:30;;;;;;;1999.90;999.90;;;;;;;5.24;64.98;101972.75;4906936;28;96923;-71
2021/11/19 05:57:58;;;;;;;1999.90;999.90;;;;;;;5.24;65.03;101988.59;4905894;28;98149;-73
2021/11/19 06:00:32;;;;;;;1999.90;999.90;;;;;;;5.25;64.66;101984.22;4921094;28;97737;-77
2021/11/19 06:03:12;;;;;;;1999.90;999.90;;;;;;;5.23;64.61;101980.56;4888320;28;101233;-75
2021/11/19 06:05:46;;;;;;;1999.90;999.90;;;;;;;5.23;64.80;101983.22;4906388;28;97832;-74
2021/11/19 06:08:24;;;;;;;1999.90;999.90;;;;;;;5.28;64.18;101974.75;4903428;28;98283;-75
2021/11/19 06:11:00;;;;;;;1999.90;999.90;;;;;;;5.29;64.71;101981.84;4927682;28;96889;-75
2021/11/19 06:13:30;;;;;;;1999.90;999.90;;;;;;;5.28;64.66;101977.41;4911752;28;97902;-75
2021/11/19 06:16:01;;;;;;;1999.90;999.90;;;;;;;5.22;65.55;101974.38;4885369;28;99212;-72
2021/11/19 06:18:32;;;;;;;1999.90;999.90;;;;;;;5.25;65.11;101971.91;4888210;28;1097305;-73
2021/11/19 06:21:03;;;;;;;1999.90;999.90;;;;;;;5.25;64.91;101981.59;4928177;28;96941;-71
2021/11/19 06:23:34;;;;;;;1999.90;999.90;;;;;;;5.25;65.01;101986.88;4923307;28;98072;-71
2021/11/19 06:26:06;;;;;;;1999.90;999.90;;;;;;;5.23;66.08;101986.75;4895570;28;100430;-72
2021/11/19 06:28:40;;;;;;;1999.90;999.90;;;;;;;5.26;64.96;101992.22;4896348;28;97192;-71
2021/11/19 06:31:09;;;;;;;1999.90;999.90;;;;;;;5.28;65.44;101990.59;4911933;28;98000;-73
2021/11/19 06:33:37;;;;;;;1999.90;999.90;;;;;;;5.27;65.51;102001.94;4899496;28;99604;-69
2021/11/19 06:36:06;;;;;;;1999.90;999.90;;;;;;;5.26;65.27;101994.88;4889919;28;97906;-69
2021/11/19 06:38:35;;;;;;;1999.90;999.90;;;;;;;5.25;65.78;101995.66;4892579;28;98269;-69
2021/11/19 06:41:08;;;;;;;1999.90;999.90;;;;;;;5.26;65.62;101994.88;4913797;28;97309;-70
2021/11/19 06:43:49;;;;;;;1999.90;999.90;;;;;;;5.26;65.49;101997.50;4895546;28;99640;-69
2021/11/19 06:46:34;;;;;;;1999.90;999.90;;;;;;;5.28;65.26;102011.72;4906638;28;98869;-70
2021/11/19 06:49:28;;;;;;;1999.90;999.90;;;;;;;5.32;65.24;101994.34;4925552;28;97603;-71
2021/11/19 06:52:20;;;;;;;1999.90;999.90;;;;;;;5.33;65.17;102004.06;4923347;28;96848;-71
2021/11/19 06:55:10;;;;;;;1999.90;999.90;;;;;;;5.35;65.28;102002.44;4908998;28;99966;-72
2021/11/19 06:57:53;;;;;;;1999.90;999.90;;;;;;;5.37;65.24;102012.28;4914406;28;99258;-72
2021/11/19 07:00:23;;;;;;;1999.90;999.90;;;;;;;5.36;65.89;102009.56;4895022;28;98014;-72
2021/11/19 07:02:52;;;;;;;1999.90;999.90;;;;;;;5.35;65.82;102007.72;4898857;28;97657;-72
2021/11/19 07:05:20;;;;;;;1999.90;999.90;;;;;;;5.37;65.17;102011.34;4913676;28;98059;-71
2021/11/19 07:07:48;;;;;;;1999.90;999.90;;;;;;;5.40;64.97;102015.09;4913527;28;98780;-72
2021/11/19 07:10:19;;;;;;;1999.90;999.90;;;;;;;5.40;65.58;102024.72;4897763;28;97695;-71
2021/11/19 07:12:48;;;;;;;1999.90;999.90;;;;;;;5.39;65.50;102026.47;4896041;28;97747;-71
2021/11/19 07:15:18;;;;;;;1999.90;999.90;;;;;;;5.42;65.24;102031.03;4891991;28;99752;-73
2021/11/19 07:17:46;;;;;;;1999.90;999.90;;;;;;;5.42;65.29;102024.03;4924398;28;98537;-71
2021/11/19 07:20:17;;;;;;;1999.90;999.90;;;;;;;5.46;65.62;102031.31;4909387;28;97009;-73
2021/11/19 07:22:45;;;;;;;1999.90;999.90;;;;;;;5.46;65.34;102019.84;4910071;28;97289;-71
2021/11/19 07:25:16;;;;;;;1999.90;999.90;;;;;;;5.47;65.03;102025.22;4900234;28;100028;-72
2021/11/19 07:27:46;;;;;;;1999.90;999.90;;;;;;;5.49;65.15;102034.13;4905383;28;99403;-71
2021/11/19 07:30:18;;;;;;;1999.90;999.90;;;;;;;5.53;64.68;102035.22;4911816;28;96721;-72
2021/11/19 07:33:06;;;;;;;1999.90;999.90;;;;;;;5.55;65.32;102039.81;4938201;28;97085;-71
2021/11/19 07:35:54;;;;;;;1999.90;999.90;;;;;;;5.55;65.35;102031.88;4915410;28;98763;-71
2021/11/19 07:38:49;;;;;;;1999.90;999.90;;;;;;;5.56;65.19;102036.31;4915968;28;97363;-71
2021/11/19 07:41:25;;;;;;;1999.90;999.90;;;;;;;5.60;65.06;102048.91;4932684;28;96923;-73
2021/11/19 07:44:02;;;;;;;1999.90;999.90;;;;;;;5.60;64.77;102027.78;4916062;28;97023;-74
2021/11/19 07:46:37;;;;;;;1999.90;999.90;;;;;;;5.57;65.58;102026.69;4897381;28;101120;-71
2021/11/19 07:49:08;;;;;;;1999.90;999.90;;;;;;;5.57;65.13;102040.81;4915895;28;98741;-73
2021/11/19 07:51:42;;;;;;;1999.90;999.90;;;;;;;5.56;65.50;102030.13;4893515;28;97186;-73
2021/11/19 07:54:10;;;;;;;1999.90;999.90;;;;;;;5.57;65.22;102038.16;4905718;28;97620;-73
2021/11/19 07:56:40;;;;;;;1999.90;999.90;;;;;;;5.58;65.60;102026.78;4896548;28;100761;-72
2021/11/19 07:59:10;;;;;;;1999.90;999.90;;;;;;;5.62;65.18;102031.44;4921113;28;97643;-73
2021/11/19 08:01:40;;;;;;;1999.90;999.90;;;;;;;5.63;65.62;102032.34;4912392;28;97823;-72
2021/11/19 08:04:09;;;;;;;1999.90;999.90;;;;;;;5.63;65.30;102027.97;4899741;28;97729;-74
2021/11/19 08:06:37;;;;;;;1999.90;999.90;;;;;;;5.68;65.20;102036.19;4915169;28;98300;-72
2021/11/19 08:09:24;;;;;;;1999.90;999.90;;;;;;;5.71;65.43;102047.84;4911758;28;97793;-72
2021/11/19 08:12:01;;;;;;;1999.90;999.90;;;;;;;5.72;65.29;102039.06;4923966;28;97888;-72
2021/11/19 08:14:30;;;;;;;1999.90;999.90;;;;;;;5.77;65.27;102042.00;4893100;28;96858;-73
2021/11/19 08:17:01;;;;;;;1999.90;999.90;;;;;;;5.79;65.06;102041.31;4920316;28;98779;-72
2021/11/19 08:19:44;;;;;;;1999.90;999.90;;;;;;;5.80;65.54;102048.38;4924908;28;98471;-73
2021/11/19 08:22:13;;;;;;;1999.90;999.90;;;;;;;5.85;64.98;102032.84;4925149;28;97404;-73
2021/11/19 08:24:42;;;;;;;1999.90;999.90;;;;;;;5.86;65.01;102032.91;4927949;28;97019;-72
2021/11/19 08:27:12;;;;;;;1999.90;999.90;;;;;;;5.87;65.02;102034.72;4911620;28;99759;-73
2021/11/19 08:29:42;;;;;;;1999.90;999.90;;;;;;;5.92;64.49;102045.59;4910843;28;99073;-72
2021/11/19 08:32:12;;;;;;;1999.90;999.90;;;;;;;5.93;64.55;102042.09;4908754;28;96961;-72
2021/11/19 08:34:41;;;;;;;1999.90;999.90;;;;;;;5.95;64.49;102037.81;4894257;28;98250;-72
2021/11/19 08:37:10;;;;;;;1999.90;999.90;;;;;;;5.99;64.67;102040.75;4926157;28;98355;-74
2021/11/19 08:39:38;;;;;;;1999.90;999.90;;;;;;;6.00;64.27;102052.22;4892903;28;98994;-74
2021/11/19 08:42:08;;;;;;;1999.90;999.90;;;;;;;6.00;64.35;102023.16;4928211;28;97695;-74
2021/11/19 08:44:36;;;;;;;1999.90;999.90;;;;;;;6.03;64.55;102029.53;4928618;28;97416;-72
2021/11/19 08:47:24;;;;;;;1999.90;999.90;;;;;;;6.02;64.69;102035.66;4931551;28;98685;-74
2021/11/19 08:49:53;;;;;;;1999.90;999.90;;;;;;;6.11;64.18;102035.28;4933386;28;97574;-75
2021/11/19 08:52:22;;;;;;;1999.90;999.90;;;;;;;6.09;63.99;102039.56;4934318;28;97234;-74
2021/11/19 08:54:51;;;;;;;1999.90;999.90;;;;;;;6.11;64.01;102038.84;4914790;28;97177;-71
2021/11/19 08:57:22;;;;;;;1999.90;999.90;;;;;;;6.11;64.17;102043.19;4914525;28;99281;-72
2021/11/19 08:59:50;;;;;;;1999.90;999.90;;;;;;;6.12;63.76;102058.25;4927996;28;97077;-71
2021/11/19 09:02:19;;;;;;;1999.90;999.90;;;;;;;6.13;64.07;102046.84;4918095;28;97507;-70
2021/11/19 09:05:02;;;;;;;1999.90;999.90;;;;;;;6.11;64.39;102052.03;4910695;28;97049;-70
2021/11/19 09:07:32;;;;;;;1999.90;999.90;;;;;;;6.16;64.33;102044.38;4910824;28;100369;-71
2021/11/19 09:10:01;;;;;;;1999.90;999.90;;;;;;;6.17;64.28;102041.84;4932525;28;98097;-71
2021/11/19 09:12:31;;;;;;;1999.90;999.90;;;;;;;6.18;64.19;102043.66;4927100;28;97405;-70
2021/11/19 09:14:59;;;;;;;1999.90;999.90;;;;;;;6.21;64.12;102049.09;4908705;28;97099;-71
2021/11/19 09:17:47;;;;;;;1999.90;999.90;;;;;;;6.19;64.52;102056.06;4923493;28;98750;-70
2021/11/19 09:20:19;;;;;;;1999.90;999.90;;;;;;;6.20;64.33;102046.38;4925447;28;97585;-72
2021/11/19 09:22:51;;;;;;;1999.90;999.90;;;;;;;6.23;64.21;102051.88;4925437;28;97720;-73
2021/11/19 09:25:21;;;;;;;1999.90;999.90;;;;;;;6.23;64.02;102051.88;4930908;28;96958;-72
2021/11/19 09:27:50;;;;;;;1999.90;999.90;;;;;;;6.28;63.88;102055.72;4934254;28;97864;-72
2021/11/19 09:30:22;;;;;;;1999.90;999.90;;;;;;;6.32;63.69;102047.16;4912377;28;99007;-75
2021/11/19 09:32:53;;;;;;;1999.90;999.90;;;;;;;6.29;64.10;102048.72;4907816;28;97971;-74
2021/11/19 09:35:24;;;;;;;1999.90;999.90;;;;;;;6.24;64.19;102054.59;4916254;28;97785;-74
2021/11/19 09:37:52;;;;;;;1999.90;999.90;;;;;;;6.28;64.13;102047.78;4911186;28;98820;-74
2021/11/19 09:40:24;;;;;;;1999.90;999.90;;;;;;;6.31;63.57;102047.97;4913008;28;98785;-74
2021/11/19 09:42:55;;;;;;;1999.90;999.90;;;;;;;6.32;63.70;102064.75;4926062;28;97574;-73
2021/11/19 09:45:44;;;;;;;1999.90;999.90;;;;;;;6.32;63.65;102044.50;4912809;28;96853;-74
2021/11/19 09:48:30;;;;;;;1999.90;999.90;;;;;;;6.28;63.89;102052.16;4931128;28;97811;-73
2021/11/19 09:51:22;;;;;;;1999.90;999.90;;;;;;;6.30;63.80;102048.78;4908876;28;99957;-73
2021/11/19 09:54:37;;;;;;;1999.90;999.90;;;;;;;6.33;63.87;102063.91;4929998;28;96627;-73
2021/11/19 09:57:29;;;;;;;1999.90;999.90;;;;;;;6.33;64.16;102054.25;4872816;28;97897;-74
2021/11/19 10:00:10;;;;;;;1999.90;999.90;;;;;;;6.35;63.79;102059.63;4910251;28;100970;-75
2021/11/19 10:03:06;;;;;;;1999.90;999.90;;;;;;;6.35;64.25;102065.81;4929364;28;97563;-73
2021/11/19 10:05:41;;;;;;;1999.90;999.90;;;;;;;6.36;63.55;102054.41;4928156;28;97490;-73
2021/11/19 10:08:49;;;;;;;1999.90;999.90;;;;;;;6.30;65.07;102054.06;4932886;28;97923;-73
2021/11/19 10:11:24;;;;;;;1999.90;999.90;;;;;;;6.37;63.91;102053.63;4925877;28;98096;-74
2021/11/19 10:14:22;;;;;;;1999.90;999.90;;;;;;;6.40;64.01;102061.72;4925900;28;97945;-74
2021/11/19 10:17:05;;;;;;;1999.90;999.90;;;;;;;6.40;64.17;102056.41;4912298;28;97240;-75
2021/11/19 10:19:35;;;;;;;1999.90;999.90;;;;;;;6.41;63.80;102063.56;4929902;28;97446;-74
2021/11/19 10:22:09;;;;;;;1999.90;999.90;;;;;;;6.46;63.71;102055.88;4905293;28;100533;-73
2021/11/19 10:24:43;;;;;;;1999.90;999.90;;;;;;;6.44;63.52;102049.56;4925845;28;99418;-73
2021/11/19 10:27:13;;;;;;;1999.90;999.90;;;;;;;6.45;63.51;102048.78;4929078;28;97597;-74
2021/11/19 10:29:46;;;;;;;1999.90;999.90;;;;;;;6.43;63.62;102047.75;4926011;28;97161;-74
2021/11/19 10:32:16;;;;;;;1999.90;999.90;;;;;;;6.46;63.45;102045.28;4908888;28;100717;-73
2021/11/19 10:34:49;;;;;;;1999.90;999.90;;;;;;;6.44;63.55;102039.00;4916023;28;99190;-75
2021/11/19 10:37:43;;;;;;;1999.90;999.90;;;;;;;6.44;63.61;102042.56;4913647;28;97580;-74
2021/11/19 10:40:28;;;;;;;1999.90;999.90;;;;;;;6.47;63.95;102041.84;4918560;28;97355;-73
2021/11/19 10:43:28;;;;;;;1999.90;999.90;;;;;;;6.51;63.49;102038.53;4932049;28;98029;-73
2021/11/19 10:46:39;;;;;;;1999.90;999.90;;;;;;;6.51;63.77;102034.16;4904945;28;99068;-73
2021/11/19 10:49:38;;;;;;;1999.90;999.90;;;;;;;6.53;64.00;102036.88;4932706;28;97153;-73
2021/11/19 10:52:49;;;;;;;1999.90;999.90;;;;;;;6.55;63.56;102024.66;4849811;28;97232;-73
2021/11/19 10:55:42;;;;;;;1999.90;999.90;;;;;;;6.57;63.83;102033.59;4863694;28;101103;-75
2021/11/19 10:58:40;;;;;;;1999.90;999.90;;;;;;;6.56;64.01;102026.50;4930604;28;98972;-72
2021/11/19 11:01:37;;;;;;;1999.90;999.90;;;;;;;6.60;63.62;102023.19;4925765;28;97503;-74
2021/11/19 11:04:17;;;;;;;1999.90;999.90;;;;;;;6.63;63.22;102018.09;4932871;28;96789;-74
2021/11/19 11:06:52;;;;;;;1999.90;999.90;;;;;;;6.64;63.52;102017.25;4928329;28;97817;-73
2021/11/19 11:09:28;;;;;;;1999.90;999.90;;;;;;;6.64;63.42;102030.47;4909838;28;99236;-73
2021/11/19 11:12:07;;;;;;;1999.90;999.90;;;;;;;6.67;63.27;102030.66;4914458;28;97020;-73
2021/11/19 11:14:37;;;;;;;1999.90;999.90;;;;;;;6.67;63.30;102020.97;4907872;28;97436;-73
2021/11/19 11:17:27;;;;;;;1999.90;999.90;;;;;;;6.68;63.79;102024.53;4928129;28;98284;-73
2021/11/19 11:19:59;;;;;;;1999.90;999.90;;;;;;;6.72;63.51;102023.91;4917213;28;97909;-75
2021/11/19 11:22:31;;;;;;;1999.90;999.90;;;;;;;6.73;63.32;102020.41;4913402;28;97543;-73